createdAt,value
2023-04-17T00:00:33.671Z,94740.00
2023-04-17T00:01:33.672Z,94740.00
2023-04-17T00:02:33.770Z,94738.00
2023-04-17T00:03:33.792Z,94736.00
2023-04-17T00:04:33.913Z,94738.00
2023-04-17T00:05:33.714Z,94738.00
2023-04-17T00:06:33.706Z,94738.00
2023-04-17T00:07:33.693Z,94736.00
2023-04-17T00:08:33.714Z,94736.00
2023-04-17T00:09:33.707Z,94738.00
2023-04-17T00:10:33.720Z,94738.00
2023-04-17T00:11:33.769Z,94738.00
2023-04-17T00:12:33.798Z,94734.00
2023-04-17T00:13:33.869Z,94738.00
2023-04-17T00:14:33.861Z,94738.00
2023-04-17T00:15:33.871Z,94738.00
2023-04-17T00:16:33.947Z,94734.00
2023-04-17T00:17:33.948Z,94734.00
2023-04-17T00:18:33.905Z,94736.00
2023-04-17T00:19:33.904Z,94734.00
2023-04-17T00:20:33.922Z,94736.00
2023-04-17T00:21:33.918Z,94732.00
2023-04-17T00:22:33.955Z,94734.00
2023-04-17T00:23:33.937Z,94734.00
2023-04-17T00:24:33.950Z,94730.00
2023-04-17T00:25:33.946Z,94732.00
2023-04-17T00:26:33.981Z,94728.00
2023-04-17T00:27:33.967Z,94728.00
2023-04-17T00:28:33.978Z,94730.00
2023-04-17T00:29:33.981Z,94728.00
2023-04-17T00:30:33.989Z,94732.00
2023-04-17T00:31:34.035Z,94728.00
2023-04-17T00:32:34.030Z,94732.00
2023-04-17T00:33:34.007Z,94728.00
2023-04-17T00:34:34.035Z,94728.00
2023-04-17T00:35:34.040Z,94728.00
2023-04-17T00:36:34.030Z,94726.00
2023-04-17T00:37:34.053Z,94726.00
2023-04-17T00:38:34.048Z,94726.00
2023-04-17T00:39:34.081Z,94728.00
2023-04-17T00:40:34.067Z,94728.00
2023-04-17T00:41:34.072Z,94728.00
2023-04-17T00:42:34.078Z,94728.00
2023-04-17T00:43:34.081Z,94728.00
2023-04-17T00:44:34.085Z,94728.00
2023-04-17T00:45:34.124Z,94726.00
2023-04-17T00:46:34.105Z,94726.00
2023-04-17T00:47:34.151Z,94726.00
2023-04-17T00:48:34.120Z,94726.00
2023-04-17T00:49:34.130Z,94726.00
2023-04-17T00:50:34.154Z,94726.00
2023-04-17T00:51:34.153Z,94724.00
2023-04-17T00:52:34.163Z,94724.00
2023-04-17T00:53:34.173Z,94724.00
2023-04-17T00:54:34.169Z,94722.00
2023-04-17T00:55:34.170Z,94722.00
2023-04-17T00:56:34.161Z,94722.00
2023-04-17T00:57:34.191Z,94722.00
2023-04-17T00:58:34.188Z,94722.00
2023-04-17T00:59:34.184Z,94722.00
2023-04-17T01:00:34.201Z,94720.00
2023-04-17T01:01:34.276Z,94720.00
2023-04-17T01:02:34.300Z,94724.00
2023-04-17T01:03:34.343Z,94722.00
2023-04-17T01:04:34.213Z,94720.00
2023-04-17T01:05:34.213Z,94724.00
2023-04-17T01:06:34.232Z,94724.00
2023-04-17T01:07:34.216Z,94722.00
2023-04-17T01:08:34.223Z,94722.00
2023-04-17T01:09:34.210Z,94722.00
2023-04-17T01:10:34.230Z,94720.00
2023-04-17T01:11:34.236Z,94720.00
2023-04-17T01:12:34.221Z,94720.00
2023-04-17T01:13:34.254Z,94718.00
2023-04-17T01:14:34.258Z,94718.00
2023-04-17T01:15:34.267Z,94718.00
2023-04-17T01:16:34.303Z,94720.00
2023-04-17T01:17:34.346Z,94720.00
2023-04-17T01:18:34.268Z,94716.00
2023-04-17T01:19:34.292Z,94722.00
2023-04-17T01:20:34.306Z,94722.00
2023-04-17T01:21:34.306Z,94722.00
2023-04-17T01:22:34.303Z,94722.00
2023-04-17T01:23:34.311Z,94724.00
2023-04-17T01:24:34.323Z,94724.00
2023-04-17T01:25:34.328Z,94724.00
2023-04-17T01:26:34.345Z,94724.00
2023-04-17T01:27:34.356Z,94724.00
2023-04-17T01:28:34.369Z,94726.00
2023-04-17T01:29:34.360Z,94726.00
2023-04-17T01:30:34.403Z,94724.00
2023-04-17T01:31:34.358Z,94724.00
2023-04-17T01:32:34.390Z,94724.00
2023-04-17T01:33:34.364Z,94724.00
2023-04-17T01:34:36.142Z,94726.00
2023-04-17T01:35:34.374Z,94724.00
2023-04-17T01:36:34.389Z,94728.00
2023-04-17T01:37:34.380Z,94728.00
2023-04-17T01:38:34.363Z,94726.00
2023-04-17T01:39:34.339Z,94728.00
2023-04-17T01:40:34.366Z,94726.00
2023-04-17T01:41:34.325Z,94728.00
2023-04-17T01:42:34.332Z,94728.00
2023-04-17T01:43:34.329Z,94726.00
2023-04-17T01:44:34.309Z,94728.00
2023-04-17T01:45:34.325Z,94724.00
2023-04-17T01:46:34.389Z,94724.00
2023-04-17T01:47:34.373Z,94726.00
2023-04-17T01:48:34.294Z,94726.00
2023-04-17T01:49:34.272Z,94724.00
2023-04-17T01:50:34.289Z,94726.00
2023-04-17T01:51:34.271Z,94728.00
2023-04-17T01:52:34.276Z,94724.00
2023-04-17T01:53:34.273Z,94726.00
2023-04-17T01:54:34.254Z,94726.00
2023-04-17T01:55:34.236Z,94726.00
2023-04-17T01:56:34.244Z,94726.00
2023-04-17T01:57:34.255Z,94730.00
2023-04-17T01:58:34.238Z,94730.00
2023-04-17T01:59:34.210Z,94732.00
2023-04-17T02:00:34.229Z,94732.00
2023-04-17T02:01:34.246Z,94730.00
2023-04-17T02:02:34.370Z,94730.00
2023-04-17T02:03:34.308Z,94730.00
2023-04-17T02:04:34.231Z,94730.00
2023-04-17T02:05:34.194Z,94728.00
2023-04-17T02:06:34.187Z,94724.00
2023-04-17T02:07:34.161Z,94724.00
2023-04-17T02:08:34.151Z,94722.00
2023-04-17T02:09:34.144Z,94720.00
2023-04-17T02:10:34.136Z,94720.00
2023-04-17T02:11:34.144Z,94720.00
2023-04-17T02:12:34.134Z,94720.00
2023-04-17T02:13:34.127Z,94720.00
2023-04-17T02:14:34.134Z,94720.00
2023-04-17T02:15:34.166Z,94720.00
2023-04-17T02:16:34.160Z,94720.00
2023-04-17T02:17:34.170Z,94722.00
2023-04-17T02:18:34.080Z,94720.00
2023-04-17T02:19:34.085Z,94722.00
2023-04-17T02:20:34.076Z,94722.00
2023-04-17T02:21:34.087Z,94724.00
2023-04-17T02:22:34.070Z,94726.00
2023-04-17T02:23:34.047Z,94722.00
2023-04-17T02:24:34.061Z,94724.00
2023-04-17T02:25:34.050Z,94724.00
2023-04-17T02:26:34.048Z,94726.00
2023-04-17T02:27:34.045Z,94730.00
2023-04-17T02:28:34.018Z,94732.00
2023-04-17T02:29:34.014Z,94732.00
2023-04-17T02:30:34.022Z,94728.00
2023-04-17T02:31:34.094Z,94730.00
2023-04-17T02:32:34.050Z,94730.00
2023-04-17T02:33:33.991Z,94732.00
2023-04-17T02:34:33.985Z,94728.00
2023-04-17T02:35:34.009Z,94730.00
2023-04-17T02:36:33.988Z,94728.00
2023-04-17T02:37:33.963Z,94728.00
2023-04-17T02:38:33.967Z,94728.00
2023-04-17T02:39:33.961Z,94730.00
2023-04-17T02:40:33.961Z,94728.00
2023-04-17T02:41:33.952Z,94730.00
2023-04-17T02:42:33.943Z,94730.00
2023-04-17T02:43:33.985Z,94728.00
2023-04-17T02:44:33.947Z,94730.00
2023-04-17T02:45:33.944Z,94732.00
2023-04-17T02:46:33.971Z,94730.00
2023-04-17T02:47:33.952Z,94732.00
2023-04-17T02:48:33.928Z,94728.00
2023-04-17T02:49:33.909Z,94730.00
2023-04-17T02:50:33.914Z,94728.00
2023-04-17T02:51:33.896Z,94728.00
2023-04-17T02:52:33.908Z,94728.00
2023-04-17T02:53:33.891Z,94726.00
2023-04-17T02:54:33.876Z,94726.00
2023-04-17T02:55:33.885Z,94726.00
2023-04-17T02:56:33.887Z,94728.00
2023-04-17T02:57:33.856Z,94728.00
2023-04-17T02:58:33.855Z,94728.00
2023-04-17T02:59:33.854Z,94728.00
2023-04-17T03:00:33.899Z,94728.00
2023-04-17T03:01:33.882Z,94728.00
2023-04-17T03:02:33.888Z,94726.00
2023-04-17T03:03:33.891Z,94730.00
2023-04-17T03:04:33.811Z,94728.00
2023-04-17T03:05:33.802Z,94728.00
2023-04-17T03:06:33.819Z,94728.00
2023-04-17T03:07:33.800Z,94728.00
2023-04-17T03:08:33.786Z,94728.00
2023-04-17T03:09:33.792Z,94728.00
2023-04-17T03:10:33.794Z,94728.00
2023-04-17T03:11:33.798Z,94726.00
2023-04-17T03:12:33.761Z,94728.00
2023-04-17T03:13:33.774Z,94726.00
2023-04-17T03:14:33.758Z,94726.00
2023-04-17T03:15:33.763Z,94724.00
2023-04-17T03:16:33.852Z,94726.00
2023-04-17T03:17:33.737Z,94722.00
2023-04-17T03:18:33.744Z,94726.00
2023-04-17T03:19:33.713Z,94724.00
2023-04-17T03:20:33.717Z,94722.00
2023-04-17T03:21:33.726Z,94720.00
2023-04-17T03:22:33.703Z,94722.00
2023-04-17T03:23:33.699Z,94724.00
2023-04-17T03:24:33.688Z,94722.00
2023-04-17T03:25:33.713Z,94722.00
2023-04-17T03:26:33.678Z,94722.00
2023-04-17T03:27:33.685Z,94720.00
2023-04-17T03:28:33.687Z,94720.00
2023-04-17T03:29:33.668Z,94720.00
2023-04-17T03:30:33.650Z,94722.00
2023-04-17T03:31:33.670Z,94720.00
2023-04-17T03:32:33.667Z,94722.00
2023-04-17T03:33:33.643Z,94724.00
2023-04-17T03:34:33.633Z,94722.00
2023-04-17T03:35:33.637Z,94722.00
2023-04-17T03:36:33.635Z,94720.00
2023-04-17T03:37:33.607Z,94722.00
2023-04-17T03:38:33.606Z,94724.00
2023-04-17T03:39:33.605Z,94722.00
2023-04-17T03:40:33.830Z,94724.00
2023-04-17T03:41:33.620Z,94724.00
2023-04-17T03:42:33.586Z,94724.00
2023-04-17T03:43:33.583Z,94724.00
2023-04-17T03:44:33.569Z,94728.00
2023-04-17T03:45:33.576Z,94728.00
2023-04-17T03:46:33.552Z,94730.00
2023-04-17T03:47:33.593Z,94732.00
2023-04-17T03:48:33.551Z,94732.00
2023-04-17T03:49:33.518Z,94732.00
2023-04-17T03:50:33.576Z,94734.00
2023-04-17T03:51:33.515Z,94736.00
2023-04-17T03:52:33.495Z,94734.00
2023-04-17T03:53:33.498Z,94734.00
2023-04-17T03:54:33.496Z,94734.00
2023-04-17T03:55:33.496Z,94736.00
2023-04-17T03:56:33.466Z,94736.00
2023-04-17T03:57:33.476Z,94732.00
2023-04-17T03:58:33.459Z,94736.00
2023-04-17T03:59:33.444Z,94738.00
2023-04-17T04:00:33.451Z,94740.00
2023-04-17T04:01:33.440Z,94736.00
2023-04-17T04:02:33.495Z,94736.00
2023-04-17T04:03:33.598Z,94744.00
2023-04-17T04:04:33.713Z,94738.00
2023-04-17T04:05:33.414Z,94740.00
2023-04-17T04:06:33.410Z,94744.00
2023-04-17T04:07:33.399Z,94744.00
2023-04-17T04:08:33.387Z,94744.00
2023-04-17T04:09:33.393Z,94746.00
2023-04-17T04:10:33.392Z,94746.00
2023-04-17T04:11:33.372Z,94744.00
2023-04-17T04:12:33.385Z,94744.00
2023-04-17T04:13:33.362Z,94744.00
2023-04-17T04:14:33.348Z,94744.00
2023-04-17T04:15:33.362Z,94744.00
2023-04-17T04:16:33.477Z,94744.00
2023-04-17T04:17:33.382Z,94746.00
2023-04-17T04:18:33.334Z,94742.00
2023-04-17T04:19:33.327Z,94750.00
2023-04-17T04:20:33.348Z,94748.00
2023-04-17T04:21:33.317Z,94748.00
2023-04-17T04:22:33.303Z,94748.00
2023-04-17T04:23:33.300Z,94750.00
2023-04-17T04:24:33.304Z,94748.00
2023-04-17T04:25:33.284Z,94750.00
2023-04-17T04:26:33.313Z,94751.00
2023-04-17T04:27:33.280Z,94751.00
2023-04-17T04:28:33.291Z,94753.00
2023-04-17T04:29:33.262Z,94753.00
2023-04-17T04:30:33.265Z,94753.00
2023-04-17T04:31:33.305Z,94751.00
2023-04-17T04:32:33.274Z,94751.00
2023-04-17T04:33:33.290Z,94751.00
2023-04-17T04:34:33.277Z,94753.00
2023-04-17T04:35:33.290Z,94751.00
2023-04-17T04:36:33.294Z,94753.00
2023-04-17T04:37:33.290Z,94753.00
2023-04-17T04:38:33.413Z,94751.00
2023-04-17T04:39:33.301Z,94751.00
2023-04-17T04:40:33.316Z,94751.00
2023-04-17T04:41:33.331Z,94751.00
2023-04-17T04:42:33.342Z,94750.00
2023-04-17T04:43:33.317Z,94750.00
2023-04-17T04:44:33.347Z,94750.00
2023-04-17T04:45:33.336Z,94750.00
2023-04-17T04:46:33.375Z,94750.00
2023-04-17T04:47:33.408Z,94751.00
2023-04-17T04:48:33.356Z,94753.00
2023-04-17T04:49:33.350Z,94753.00
2023-04-17T04:50:33.375Z,94755.00
2023-04-17T04:51:33.364Z,94761.00
2023-04-17T04:52:33.366Z,94759.00
2023-04-17T04:53:33.384Z,94763.00
2023-04-17T04:54:33.371Z,94765.00
2023-04-17T04:55:33.388Z,94763.00
2023-04-17T04:56:33.387Z,94763.00
2023-04-17T04:57:33.406Z,94763.00
2023-04-17T04:58:33.402Z,94763.00
2023-04-17T04:59:33.408Z,94765.00
2023-04-17T05:00:33.397Z,94767.00
2023-04-17T05:01:33.506Z,94767.00
2023-04-17T05:02:33.596Z,94769.00
2023-04-17T05:03:33.513Z,94769.00
2023-04-17T05:04:33.565Z,94769.00
2023-04-17T05:05:33.459Z,94769.00
2023-04-17T05:06:33.466Z,94769.00
2023-04-17T05:07:33.470Z,94771.00
2023-04-17T05:08:33.471Z,94771.00
2023-04-17T05:09:33.474Z,94771.00
2023-04-17T05:10:33.466Z,94769.00
2023-04-17T05:11:33.477Z,94771.00
2023-04-17T05:12:33.474Z,94769.00
2023-04-17T05:13:33.506Z,94767.00
2023-04-17T05:14:33.487Z,94767.00
2023-04-17T05:15:33.485Z,94769.00
2023-04-17T05:16:33.547Z,94767.00
2023-04-17T05:17:33.512Z,94767.00
2023-04-17T05:18:33.489Z,94765.00
2023-04-17T05:19:33.516Z,94763.00
2023-04-17T05:20:33.519Z,94765.00
2023-04-17T05:21:33.521Z,94763.00
2023-04-17T05:22:33.544Z,94765.00
2023-04-17T05:23:33.517Z,94765.00
2023-04-17T05:24:33.545Z,94771.00
2023-04-17T05:25:33.537Z,94761.00
2023-04-17T05:26:33.566Z,94771.00
2023-04-17T05:27:33.601Z,94771.00
2023-04-17T05:28:33.559Z,94773.00
2023-04-17T05:29:33.573Z,94773.00
2023-04-17T05:30:33.578Z,94771.00
2023-04-17T05:31:33.602Z,94779.00
2023-04-17T05:32:33.629Z,94779.00
2023-04-17T05:33:33.596Z,94783.00
2023-04-17T05:34:33.610Z,94785.00
2023-04-17T05:35:33.620Z,94785.00
2023-04-17T05:36:33.642Z,94791.00
2023-04-17T05:37:33.664Z,94791.00
2023-04-17T05:38:33.654Z,94791.00
2023-04-17T05:39:33.660Z,94789.00
2023-04-17T05:40:33.696Z,94789.00
2023-04-17T05:41:34.217Z,94793.00
2023-04-17T05:42:33.712Z,94791.00
2023-04-17T05:43:33.721Z,94791.00
2023-04-17T05:44:33.727Z,94787.00
2023-04-17T05:45:33.751Z,94789.00
2023-04-17T05:46:33.759Z,94787.00
2023-04-17T05:47:33.749Z,94787.00
2023-04-17T05:48:34.234Z,94787.00
2023-04-17T05:49:33.752Z,94785.00
2023-04-17T05:50:33.771Z,94785.00
2023-04-17T05:51:33.772Z,94787.00
2023-04-17T05:52:33.771Z,94787.00
2023-04-17T05:53:33.804Z,94791.00
2023-04-17T05:54:33.813Z,94791.00
2023-04-17T05:55:33.872Z,94795.00
2023-04-17T05:56:33.951Z,94791.00
2023-04-17T05:57:33.988Z,94791.00
2023-04-17T05:58:34.066Z,94791.00
2023-04-17T05:59:34.106Z,94791.00
2023-04-17T06:00:34.160Z,94797.00
2023-04-17T06:01:34.243Z,94803.00
2023-04-17T06:02:34.387Z,94805.00
2023-04-17T06:03:34.530Z,94805.00
2023-04-17T06:04:34.710Z,94805.00
2023-04-17T06:05:34.505Z,94806.00
2023-04-17T06:06:34.498Z,94805.00
2023-04-17T06:07:34.546Z,94805.00
2023-04-17T06:08:34.622Z,94803.00
2023-04-17T06:09:34.669Z,94801.00
2023-04-17T06:10:34.704Z,94803.00
2023-04-17T06:11:34.773Z,94799.00
2023-04-17T06:12:34.803Z,94799.00
2023-04-17T06:13:34.865Z,94797.00
2023-04-17T06:14:34.901Z,94799.00
2023-04-17T06:15:34.951Z,94801.00
2023-04-17T06:16:35.070Z,94799.00
2023-04-17T06:17:35.080Z,94803.00
2023-04-17T06:18:35.251Z,94801.00
2023-04-17T06:19:35.133Z,94801.00
2023-04-17T06:20:35.181Z,94805.00
2023-04-17T06:21:35.221Z,94797.00
2023-04-17T06:22:35.256Z,94799.00
2023-04-17T06:23:35.289Z,94799.00
2023-04-17T06:24:35.323Z,94805.00
2023-04-17T06:25:35.362Z,94805.00
2023-04-17T06:26:35.419Z,94806.00
2023-04-17T06:27:36.801Z,94806.00
2023-04-17T06:28:35.518Z,94808.00
2023-04-17T06:29:35.524Z,94810.00
2023-04-17T06:30:35.633Z,94810.00
2023-04-17T06:31:35.790Z,94803.00
2023-04-17T06:32:35.655Z,94805.00
2023-04-17T06:33:35.676Z,94803.00
2023-04-17T06:34:38.124Z,94805.00
2023-04-17T06:35:36.719Z,94803.00
2023-04-17T06:36:35.713Z,94806.00
2023-04-17T06:37:35.672Z,94810.00
2023-04-17T06:38:35.692Z,94814.00
2023-04-17T06:39:35.677Z,94818.00
2023-04-17T06:40:35.719Z,94818.00
2023-04-17T06:41:35.660Z,94816.00
2023-04-17T06:42:35.737Z,94818.00
2023-04-17T06:43:35.662Z,94816.00
2023-04-17T06:44:35.657Z,94818.00
2023-04-17T06:45:35.648Z,94816.00
2023-04-17T06:46:35.686Z,94814.00
2023-04-17T06:47:35.663Z,94808.00
2023-04-17T06:48:35.717Z,94808.00
2023-04-17T06:49:35.617Z,94806.00
2023-04-17T06:50:35.587Z,94808.00
2023-04-17T06:51:35.656Z,94808.00
2023-04-17T06:52:35.602Z,94808.00
2023-04-17T06:53:35.604Z,94806.00
2023-04-17T06:54:35.569Z,94808.00
2023-04-17T06:55:35.581Z,94810.00
2023-04-17T06:56:35.635Z,94808.00
2023-04-17T06:57:35.752Z,94806.00
2023-04-17T06:58:35.718Z,94808.00
2023-04-17T06:59:35.753Z,94810.00
2023-04-17T07:00:36.007Z,94812.00
2023-04-17T07:01:35.897Z,94814.00
2023-04-17T07:02:36.419Z,94816.00
2023-04-17T07:03:36.121Z,94814.00
2023-04-17T07:04:35.964Z,94818.00
2023-04-17T07:05:35.908Z,94816.00
2023-04-17T07:06:35.927Z,94818.00
2023-04-17T07:07:36.015Z,94818.00
2023-04-17T07:08:36.020Z,94818.00
2023-04-17T07:09:36.082Z,94822.00
2023-04-17T07:10:36.119Z,94822.00
2023-04-17T07:11:36.159Z,94824.00
2023-04-17T07:12:36.219Z,94826.00
2023-04-17T07:13:36.234Z,94828.00
2023-04-17T07:14:36.310Z,94828.00
2023-04-17T07:15:36.316Z,94828.00
2023-04-17T07:16:36.454Z,94826.00
2023-04-17T07:17:36.834Z,94826.00
2023-04-17T07:18:36.731Z,94824.00
2023-04-17T07:19:36.450Z,94826.00
2023-04-17T07:20:36.461Z,94828.00
2023-04-17T07:21:36.480Z,94826.00
2023-04-17T07:22:36.543Z,94822.00
2023-04-17T07:23:36.519Z,94824.00
2023-04-17T07:24:36.588Z,94822.00
2023-04-17T07:25:36.592Z,94820.00
2023-04-17T07:26:36.640Z,94816.00
2023-04-17T07:27:36.743Z,94820.00
2023-04-17T07:28:36.680Z,94822.00
2023-04-17T07:29:36.742Z,94820.00
2023-04-17T07:30:36.765Z,94824.00
2023-04-17T07:31:36.827Z,94822.00
2023-04-17T07:32:37.282Z,94828.00
2023-04-17T07:33:39.535Z,94826.00
2023-04-17T07:34:36.864Z,94828.00
2023-04-17T07:35:36.846Z,94828.00
2023-04-17T07:36:36.844Z,94832.00
2023-04-17T07:37:36.861Z,94830.00
2023-04-17T07:38:38.095Z,94832.00
2023-04-17T07:39:37.257Z,94830.00
2023-04-17T07:40:36.802Z,94828.00
2023-04-17T07:41:36.800Z,94830.00
2023-04-17T07:42:36.803Z,94828.00
2023-04-17T07:43:36.784Z,94834.00
2023-04-17T07:44:37.242Z,94834.00
2023-04-17T07:45:38.064Z,94830.00
2023-04-17T07:46:36.836Z,94834.00
2023-04-17T07:47:36.805Z,94832.00
2023-04-17T07:48:36.752Z,94832.00
2023-04-17T07:49:36.734Z,94836.00
2023-04-17T07:50:36.744Z,94834.00
2023-04-17T07:51:36.751Z,94836.00
2023-04-17T07:52:36.767Z,94838.00
2023-04-17T07:53:36.753Z,94834.00
2023-04-17T07:54:36.764Z,94834.00
2023-04-17T07:55:36.778Z,94834.00
2023-04-17T07:56:36.770Z,94834.00
2023-04-17T07:57:36.802Z,94836.00
2023-04-17T07:58:36.760Z,94836.00
2023-04-17T07:59:36.786Z,94834.00
2023-04-17T08:00:36.777Z,94834.00
2023-04-17T08:01:36.784Z,94836.00
2023-04-17T08:02:36.920Z,94834.00
2023-04-17T08:03:37.023Z,94830.00
2023-04-17T08:04:37.002Z,94832.00
2023-04-17T08:05:36.918Z,94828.00
2023-04-17T08:06:36.951Z,94828.00
2023-04-17T08:07:37.253Z,94828.00
2023-04-17T08:08:37.042Z,94824.00
2023-04-17T08:09:37.081Z,94822.00
2023-04-17T08:10:37.138Z,94822.00
2023-04-17T08:11:49.482Z,94822.00
2023-04-17T08:12:38.223Z,94820.00
2023-04-17T08:13:37.185Z,94818.00
2023-04-17T08:14:37.176Z,94818.00
2023-04-17T08:15:39.063Z,94818.00
2023-04-17T08:16:37.262Z,94818.00
2023-04-17T08:17:37.856Z,94814.00
2023-04-17T08:18:37.331Z,94818.00
2023-04-17T08:19:37.387Z,94818.00
2023-04-17T08:20:37.439Z,94816.00
2023-04-17T08:21:37.513Z,94810.00
2023-04-17T08:22:37.540Z,94810.00
2023-04-17T08:23:37.573Z,94812.00
2023-04-17T08:24:37.592Z,94814.00
2023-04-17T08:25:37.585Z,94814.00
2023-04-17T08:26:37.609Z,94808.00
2023-04-17T08:27:37.649Z,94808.00
2023-04-17T08:28:37.627Z,94806.00
2023-04-17T08:29:37.668Z,94806.00
2023-04-17T08:30:37.745Z,94803.00
2023-04-17T08:31:37.758Z,94801.00
2023-04-17T08:32:37.809Z,94797.00
2023-04-17T08:33:37.787Z,94799.00
2023-04-17T08:34:37.849Z,94805.00
2023-04-17T08:35:37.887Z,94801.00
2023-04-17T08:36:38.082Z,94803.00
2023-04-17T08:37:38.269Z,94799.00
2023-04-17T08:38:38.052Z,94805.00
2023-04-17T08:39:38.291Z,94803.00
2023-04-17T08:40:38.137Z,94803.00
2023-04-17T08:41:38.070Z,94803.00
2023-04-17T08:42:38.171Z,94801.00
2023-04-17T08:43:38.196Z,94803.00
2023-04-17T08:44:38.237Z,94801.00
2023-04-17T08:45:38.276Z,94806.00
2023-04-17T08:46:38.454Z,94806.00
2023-04-17T08:47:38.325Z,94805.00
2023-04-17T08:48:38.326Z,94805.00
2023-04-17T08:49:38.312Z,94805.00
2023-04-17T08:50:38.316Z,94797.00
2023-04-17T08:51:38.307Z,94801.00
2023-04-17T08:52:38.345Z,94803.00
2023-04-17T08:53:38.437Z,94801.00
2023-04-17T08:54:38.477Z,94803.00
2023-04-17T08:55:38.533Z,94806.00
2023-04-17T08:56:38.596Z,94801.00
2023-04-17T08:57:38.648Z,94801.00
2023-04-17T08:58:38.664Z,94801.00
2023-04-17T08:59:38.740Z,94806.00
2023-04-17T09:00:38.754Z,94801.00
2023-04-17T09:01:38.878Z,94797.00
2023-04-17T09:02:39.317Z,94793.00
2023-04-17T09:03:38.986Z,94795.00
2023-04-17T09:04:39.402Z,94797.00
2023-04-17T09:05:38.918Z,94797.00
2023-04-17T09:06:38.922Z,94799.00
2023-04-17T09:07:38.997Z,94797.00
2023-04-17T09:08:38.985Z,94801.00
2023-04-17T09:09:38.982Z,94799.00
2023-04-17T09:10:39.020Z,94799.00
2023-04-17T09:11:39.021Z,94797.00
2023-04-17T09:12:39.040Z,94795.00
2023-04-17T09:13:39.071Z,94791.00
2023-04-17T09:14:39.281Z,94787.00
2023-04-17T09:15:39.180Z,94789.00
2023-04-17T09:16:39.148Z,94783.00
2023-04-17T09:17:39.356Z,94781.00
2023-04-17T09:18:39.155Z,94783.00
2023-04-17T09:19:39.190Z,94783.00
2023-04-17T09:20:39.154Z,94777.00
2023-04-17T09:21:39.172Z,94779.00
2023-04-17T09:22:39.278Z,94777.00
2023-04-17T09:23:39.181Z,94775.00
2023-04-17T09:24:39.199Z,94775.00
2023-04-17T09:25:39.242Z,94775.00
2023-04-17T09:26:39.208Z,94775.00
2023-04-17T09:27:39.277Z,94765.00
2023-04-17T09:28:39.344Z,94765.00
2023-04-17T09:29:39.254Z,94767.00
2023-04-17T09:30:39.780Z,94767.00
2023-04-17T09:31:39.547Z,94767.00
2023-04-17T09:32:39.360Z,94769.00
2023-04-17T09:33:39.386Z,94769.00
2023-04-17T09:34:39.430Z,94771.00
2023-04-17T09:35:40.543Z,94771.00
2023-04-17T09:36:39.548Z,94765.00
2023-04-17T09:37:39.573Z,94771.00
2023-04-17T09:38:39.603Z,94769.00
2023-04-17T09:39:39.674Z,94769.00
2023-04-17T09:40:39.797Z,94767.00
2023-04-17T09:41:39.745Z,94771.00
2023-04-17T09:42:39.784Z,94775.00
2023-04-17T09:43:39.814Z,94771.00
2023-04-17T09:44:39.829Z,94777.00
2023-04-17T09:45:39.859Z,94777.00
2023-04-17T09:46:39.894Z,94777.00
2023-04-17T09:47:39.887Z,94775.00
2023-04-17T09:48:39.907Z,94777.00
2023-04-17T09:49:39.923Z,94777.00
2023-04-17T09:50:39.970Z,94775.00
2023-04-17T09:51:39.971Z,94775.00
2023-04-17T09:52:39.983Z,94777.00
2023-04-17T09:53:40.010Z,94779.00
2023-04-17T09:54:40.046Z,94775.00
2023-04-17T09:55:40.014Z,94777.00
2023-04-17T09:56:40.210Z,94775.00
2023-04-17T09:57:40.271Z,94775.00
2023-04-17T09:58:40.065Z,94777.00
2023-04-17T09:59:40.042Z,94775.00
2023-04-17T10:00:40.116Z,94777.00
2023-04-17T10:01:40.174Z,94775.00
2023-04-17T10:02:40.170Z,94773.00
2023-04-17T10:03:40.328Z,94775.00
2023-04-17T10:04:40.271Z,94773.00
2023-04-17T10:05:40.196Z,94771.00
2023-04-17T10:06:40.158Z,94769.00
2023-04-17T10:07:40.215Z,94769.00
2023-04-17T10:08:40.213Z,94769.00
2023-04-17T10:09:40.237Z,94771.00
2023-04-17T10:10:40.312Z,94771.00
2023-04-17T10:11:40.291Z,94769.00
2023-04-17T10:12:40.314Z,94769.00
2023-04-17T10:13:40.317Z,94771.00
2023-04-17T10:14:40.345Z,94767.00
2023-04-17T10:15:40.393Z,94767.00
2023-04-17T10:16:40.451Z,94765.00
2023-04-17T10:17:40.851Z,94767.00
2023-04-17T10:18:40.434Z,94767.00
2023-04-17T10:19:40.449Z,94765.00
2023-04-17T10:20:40.804Z,94759.00
2023-04-17T10:21:40.478Z,94755.00
2023-04-17T10:22:40.514Z,94755.00
2023-04-17T10:23:40.518Z,94761.00
2023-04-17T10:24:40.520Z,94759.00
2023-04-17T10:25:40.808Z,94757.00
2023-04-17T10:26:40.592Z,94757.00
2023-04-17T10:27:40.606Z,94761.00
2023-04-17T10:28:40.613Z,94759.00
2023-04-17T10:29:40.636Z,94755.00
2023-04-17T10:30:41.859Z,94753.00
2023-04-17T10:31:40.669Z,94755.00
2023-04-17T10:32:40.671Z,94755.00
2023-04-17T10:33:40.655Z,94755.00
2023-04-17T10:34:43.714Z,94755.00
2023-04-17T10:35:40.648Z,94753.00
2023-04-17T10:36:40.622Z,94750.00
2023-04-17T10:37:40.625Z,94755.00
2023-04-17T10:38:40.626Z,94753.00
2023-04-17T10:39:40.603Z,94750.00
2023-04-17T10:40:40.645Z,94750.00
2023-04-17T10:41:40.590Z,94748.00
2023-04-17T10:42:40.575Z,94750.00
2023-04-17T10:43:40.597Z,94748.00
2023-04-17T10:44:40.566Z,94748.00
2023-04-17T10:45:40.600Z,94748.00
2023-04-17T10:46:40.553Z,94748.00
2023-04-17T10:47:40.945Z,94748.00
2023-04-17T10:48:40.558Z,94750.00
2023-04-17T10:49:40.525Z,94753.00
2023-04-17T10:50:40.596Z,94751.00
2023-04-17T10:51:40.533Z,94750.00
2023-04-17T10:52:40.773Z,94750.00
2023-04-17T10:53:40.523Z,94750.00
2023-04-17T10:54:40.516Z,94750.00
2023-04-17T10:55:40.524Z,94748.00
2023-04-17T10:56:40.551Z,94744.00
2023-04-17T10:57:40.507Z,94750.00
2023-04-17T10:58:40.486Z,94750.00
2023-04-17T10:59:40.494Z,94751.00
2023-04-17T11:00:40.487Z,94746.00
2023-04-17T11:01:40.550Z,94744.00
2023-04-17T11:02:40.508Z,94748.00
2023-04-17T11:03:40.469Z,94746.00
2023-04-17T11:04:40.519Z,94748.00
2023-04-17T11:05:40.451Z,94746.00
2023-04-17T11:06:40.468Z,94746.00
2023-04-17T11:07:40.442Z,94746.00
2023-04-17T11:08:40.418Z,94742.00
2023-04-17T11:09:40.449Z,94742.00
2023-04-17T11:10:40.461Z,94742.00
2023-04-17T11:11:44.592Z,94736.00
2023-04-17T11:12:40.827Z,94736.00
2023-04-17T11:13:40.396Z,94738.00
2023-04-17T11:14:40.382Z,94740.00
2023-04-17T11:15:40.847Z,94742.00
2023-04-17T11:16:40.438Z,94742.00
2023-04-17T11:17:40.417Z,94742.00
2023-04-17T11:18:40.380Z,94742.00
2023-04-17T11:19:40.367Z,94738.00
2023-04-17T11:20:40.356Z,94734.00
2023-04-17T11:21:40.838Z,94734.00
2023-04-17T11:22:40.826Z,94728.00
2023-04-17T11:23:40.346Z,94732.00
2023-04-17T11:24:40.333Z,94728.00
2023-04-17T11:25:40.330Z,94726.00
2023-04-17T11:26:40.320Z,94730.00
2023-04-17T11:27:40.299Z,94724.00
2023-04-17T11:28:40.297Z,94726.00
2023-04-17T11:29:40.292Z,94726.00
2023-04-17T11:30:40.308Z,94730.00
2023-04-17T11:31:40.329Z,94726.00
2023-04-17T11:32:40.382Z,94730.00
2023-04-17T11:33:40.296Z,94728.00
2023-04-17T11:34:40.347Z,94732.00
2023-04-17T11:35:40.423Z,94730.00
2023-04-17T11:36:40.472Z,94730.00
2023-04-17T11:37:40.521Z,94732.00
2023-04-17T11:38:40.526Z,94730.00
2023-04-17T11:39:40.584Z,94730.00
2023-04-17T11:40:40.620Z,94732.00
2023-04-17T11:41:40.663Z,94730.00
2023-04-17T11:42:40.694Z,94730.00
2023-04-17T11:43:40.724Z,94734.00
2023-04-17T11:44:40.765Z,94730.00